Allwood, New Jersey
Current Conditions -  °F | °C
As of 4:51 PM on Wednesday 22 Oct 2014 (Local Time) from KTEB Reporting Station
Haze Haze  
Wind Chill: 56°   Ceiling: 2500
Heat Index: 56°   Visibility: 5mi
Dew Point: 46°   Wind: 14mph
Humidity: 69%   Direction: 360°N
Pressure: 29.83"   Gusts: 23mph
Location:  40.8469°N, 74.1593°W
Report Text: KTEB 222051Z 36012G20KT 5SM HZ OVC025 13/08 A2983 RMK AO2 SLP100 60000 T01330078 56014 $
Loading
Personal Weather Stations






























Interactive Weather Map
Tropical Storm Tracking
New forecast layout! Learn more

10-Day Weather Forecast

Advertisements
Track Severe Weather on mobile